sensor_id;sensor_type;location;lat;lon;timestamp;pressure;altitude;pressure_sealevel;temperature;humidity
4814;BME280;15375;48.540;9.268;2022-07-30T00:01:02;97346.16;;;18.40;100.00
4814;BME280;15375;48.540;9.268;2022-07-30T00:03:27;97346.56;;;18.80;100.00
4814;BME280;15375;48.540;9.268;2022-07-30T00:05:54;97367.13;;;19.03;98.17
4814;BME280;15375;48.540;9.268;2022-07-30T00:08:20;97366.84;;;18.12;100.00
4814;BME280;15375;48.540;9.268;2022-07-30T00:10:46;97366.22;;;18.17;100.00
4814;BME280;15375;48.540;9.268;2022-07-30T00:13:12;97366.41;;;18.70;100.00
4814;BME280;15375;48.540;9.268;2022-07-30T00:15:37;97359.72;;;18.85;100.00
4814;BME280;15375;48.540;9.268;2022-07-30T00:18:03;97383.78;;;18.70;100.00
4814;BME280;15375;48.540;9.268;2022-07-30T00:20:28;97364.13;;;18.35;100.00
4814;BME280;15375;48.540;9.268;2022-07-30T00:22:53;97373.28;;;18.51;100.00
4814;BME280;15375;48.540;9.268;2022-07-30T00:25:19;97360.78;;;18.88;100.00
4814;BME280;15375;48.540;9.268;2022-07-30T00:27:44;97356.09;;;18.94;98.31
4814;BME280;15375;48.540;9.268;2022-07-30T00:30:10;97384.63;;;18.53;100.00
4814;BME280;15375;48.540;9.268;2022-07-30T00:32:36;97387.47;;;18.25;100.00
4814;BME280;15375;48.540;9.268;2022-07-30T00:35:02;97396.81;;;18.28;99.84
4814;BME280;15375;48.540;9.268;2022-07-30T00:37:27;97382.44;;;17.82;100.00
4814;BME280;15375;48.540;9.268;2022-07-30T00:39:53;97371.75;;;17.48;100.00
4814;BME280;15375;48.540;9.268;2022-07-30T00:42:18;97388.00;;;17.18;100.00
4814;BME280;15375;48.540;9.268;2022-07-30T00:44:52;97381.88;;;17.42;100.00
4814;BME280;15375;48.540;9.268;2022-07-30T00:47:19;97382.63;;;17.51;100.00
4814;BME280;15375;48.540;9.268;2022-07-30T00:49:45;97372.81;;;18.19;100.00
4814;BME280;15375;48.540;9.268;2022-07-30T00:52:10;97388.97;;;18.68;100.00
4814;BME280;15375;48.540;9.268;2022-07-30T00:54:36;97369.34;;;18.33;100.00
4814;BME280;15375;48.540;9.268;2022-07-30T00:57:01;97380.41;;;18.90;100.00
4814;BME280;15375;48.540;9.268;2022-07-30T00:59:26;97393.84;;;18.40;99.00
4814;BME280;15375;48.540;9.268;2022-07-30T01:01:53;97378.00;;;17.75;100.00
4814;BME280;15375;48.540;9.268;2022-07-30T01:04:19;97415.41;;;18.27;100.00
4814;BME280;15375;48.540;9.268;2022-07-30T01:06:45;97394.03;;;18.37;98.09
4814;BME280;15375;48.540;9.268;2022-07-30T01:09:10;97404.63;;;18.48;100.00
4814;BME280;15375;48.540;9.268;2022-07-30T01:11:37;97413.94;;;18.83;100.00
4814;BME280;15375;48.540;9.268;2022-07-30T01:14:08;97413.94;;;18.83;97.43
4814;BME280;15375;48.540;9.268;2022-07-30T01:16:34;97392.34;;;18.39;96.05
4814;BME280;15375;48.540;9.268;2022-07-30T01:19:03;97416.59;;;18.35;100.00
4814;BME280;15375;48.540;9.268;2022-07-30T01:21:53;97396.94;;;18.42;98.49
4814;BME280;15375;48.540;9.268;2022-07-30T01:24:32;97405.50;;;18.44;97.67
4814;BME280;15375;48.540;9.268;2022-07-30T01:26:59;97388.31;;;18.08;96.99
4814;BME280;15375;48.540;9.268;2022-07-30T01:29:28;97387.88;;;18.09;100.00
4814;BME280;15375;48.540;9.268;2022-07-30T01:31:56;97391.56;;;18.06;98.71
4814;BME280;15375;48.540;9.268;2022-07-30T01:34:31;97394.03;;;18.04;98.75
4814;BME280;15375;48.540;9.268;2022-07-30T01:36:58;97412.09;;;18.14;96.90
4814;BME280;15375;48.540;9.268;2022-07-30T01:39:25;97413.72;;;18.21;96.87
4814;BME280;15375;48.540;9.268;2022-07-30T01:41:52;97403.41;;;17.89;96.76
4814;BME280;15375;48.540;9.268;2022-07-30T01:44:19;97403.25;;;17.92;97.75
4814;BME280;15375;48.540;9.268;2022-07-30T01:46:46;97425.94;;;17.96;99.02
4814;BME280;15375;48.540;9.268;2022-07-30T01:49:14;97404.34;;;17.95;96.44
4814;BME280;15375;48.540;9.268;2022-07-30T01:51:41;97414.84;;;18.05;95.84
4814;BME280;15375;48.540;9.268;2022-07-30T01:54:08;97412.72;;;18.09;97.48
4814;BME280;15375;48.540;9.268;2022-07-30T01:56:36;97427.19;;;17.86;95.18
4814;BME280;15375;48.540;9.268;2022-07-30T01:59:03;97408.78;;;17.92;100.00
4814;BME280;15375;48.540;9.268;2022-07-30T02:01:30;97402.34;;;17.86;96.05
4814;BME280;15375;48.540;9.268;2022-07-30T02:03:56;97387.06;;;17.40;96.37
4814;BME280;15375;48.540;9.268;2022-07-30T02:06:31;97392.00;;;17.54;97.91
4814;BME280;15375;48.540;9.268;2022-07-30T02:09:01;97439.00;;;17.41;97.18
4814;BME280;15375;48.540;9.268;2022-07-30T02:11:27;97414.03;;;17.72;100.00
4814;BME280;15375;48.540;9.268;2022-07-30T02:14:21;97439.31;;;18.30;99.06
4814;BME280;15375;48.540;9.268;2022-07-30T02:16:51;97438.44;;;18.15;100.00
4814;BME280;15375;48.540;9.268;2022-07-30T02:19:18;97425.81;;;17.81;98.57
4814;BME280;15375;48.540;9.268;2022-07-30T02:21:48;97412.81;;;17.55;100.00
4814;BME280;15375;48.540;9.268;2022-07-30T02:24:20;97429.00;;;17.98;100.00
4814;BME280;15375;48.540;9.268;2022-07-30T02:26:48;97406.41;;;18.51;100.00
4814;BME280;15375;48.540;9.268;2022-07-30T02:29:16;97414.25;;;18.43;96.34
4814;BME280;15375;48.540;9.268;2022-07-30T02:31:44;97421.63;;;18.04;97.18
4814;BME280;15375;48.540;9.268;2022-07-30T02:34:10;97435.28;;;17.99;100.00
4814;BME280;15375;48.540;9.268;2022-07-30T02:36:38;97391.09;;;18.50;100.00
4814;BME280;15375;48.540;9.268;2022-07-30T02:39:06;97417.34;;;18.45;93.66
4814;BME280;15375;48.540;9.268;2022-07-30T02:41:34;97408.19;;;17.79;97.91
4814;BME280;15375;48.540;9.268;2022-07-30T02:44:01;97422.97;;;18.09;100.00
4814;BME280;15375;48.540;9.268;2022-07-30T02:46:27;97407.97;;;18.42;95.47
4814;BME280;15375;48.540;9.268;2022-07-30T02:48:54;97425.19;;;17.77;98.73
4814;BME280;15375;48.540;9.268;2022-07-30T02:51:22;97408.34;;;17.75;99.29
4814;BME280;15375;48.540;9.268;2022-07-30T02:53:48;97409.06;;;17.94;100.00
4814;BME280;15375;48.540;9.268;2022-07-30T02:56:16;97416.13;;;17.95;100.00
4814;BME280;15375;48.540;9.268;2022-07-30T02:58:43;97434.88;;;17.37;100.00
4814;BME280;15375;48.540;9.268;2022-07-30T03:01:12;97410.34;;;17.30;100.00
4814;BME280;15375;48.540;9.268;2022-07-30T03:03:41;97435.78;;;17.79;99.01
4814;BME280;15375;48.540;9.268;2022-07-30T03:06:08;97437.59;;;17.09;100.00
4814;BME280;15375;48.540;9.268;2022-07-30T03:08:34;97407.78;;;16.50;100.00
4814;BME280;15375;48.540;9.268;2022-07-30T03:10:59;97430.94;;;16.62;100.00
4814;BME280;15375;48.540;9.268;2022-07-30T03:13:27;97431.44;;;16.87;100.00
4814;BME280;15375;48.540;9.268;2022-07-30T03:15:55;97418.31;;;17.55;100.00
4814;BME280;15375;48.540;9.268;2022-07-30T03:18:22;97416.03;;;17.53;99.08
4814;BME280;15375;48.540;9.268;2022-07-30T03:20:52;97425.38;;;17.38;100.00
4814;BME280;15375;48.540;9.268;2022-07-30T03:23:19;97429.38;;;17.55;100.00
4814;BME280;15375;48.540;9.268;2022-07-30T03:25:51;97430.00;;;17.59;100.00
4814;BME280;15375;48.540;9.268;2022-07-30T03:28:19;97445.00;;;17.58;100.00
4814;BME280;15375;48.540;9.268;2022-07-30T03:30:45;97464.13;;;17.70;100.00
4814;BME280;15375;48.540;9.268;2022-07-30T03:33:11;97445.16;;;17.54;100.00
4814;BME280;15375;48.540;9.268;2022-07-30T03:35:37;97459.94;;;18.11;100.00
4814;BME280;15375;48.540;9.268;2022-07-30T03:38:04;97456.81;;;18.69;99.39
4814;BME280;15375;48.540;9.268;2022-07-30T03:40:30;97454.13;;;18.51;94.33
4814;BME280;15375;48.540;9.268;2022-07-30T03:42:56;97447.47;;;18.25;95.18
4814;BME280;15375;48.540;9.268;2022-07-30T03:45:22;97456.91;;;17.91;98.29
4814;BME280;15375;48.540;9.268;2022-07-30T03:47:49;97465.19;;;17.46;98.87
4814;BME280;15375;48.540;9.268;2022-07-30T03:50:15;97474.38;;;17.43;100.00
4814;BME280;15375;48.540;9.268;2022-07-30T03:52:41;97478.19;;;18.09;100.00
4814;BME280;15375;48.540;9.268;2022-07-30T03:55:09;97482.38;;;18.55;96.13
4814;BME280;15375;48.540;9.268;2022-07-30T03:57:35;97474.28;;;18.33;94.25
4814;BME280;15375;48.540;9.268;2022-07-30T04:00:03;97475.88;;;18.16;100.00
4814;BME280;15375;48.540;9.268;2022-07-30T04:02:29;97481.03;;;19.07;94.52
4814;BME280;15375;48.540;9.268;2022-07-30T04:04:54;97479.84;;;18.99;89.34
4814;BME280;15375;48.540;9.268;2022-07-30T04:07:19;97476.09;;;18.55;89.32
4814;BME280;15375;48.540;9.268;2022-07-30T04:09:45;97485.16;;;18.37;96.81
4814;BME280;15375;48.540;9.268;2022-07-30T04:12:10;97475.16;;;18.58;94.55
4814;BME280;15375;48.540;9.268;2022-07-30T04:14:40;97499.63;;;18.23;90.79
4814;BME280;15375;48.540;9.268;2022-07-30T04:17:11;97496.00;;;18.68;93.37
4814;BME280;15375;48.540;9.268;2022-07-30T04:19:47;97509.66;;;18.95;91.78
4814;BME280;15375;48.540;9.268;2022-07-30T04:22:14;97500.34;;;18.41;92.88
4814;BME280;15375;48.540;9.268;2022-07-30T04:24:41;97510.53;;;18.08;94.85
4814;BME280;15375;48.540;9.268;2022-07-30T04:27:08;97515.34;;;18.59;92.97
4814;BME280;15375;48.540;9.268;2022-07-30T04:29:34;97509.88;;;18.31;89.37
4814;BME280;15375;48.540;9.268;2022-07-30T04:31:59;97510.03;;;17.10;99.67
4814;BME280;15375;48.540;9.268;2022-07-30T04:34:25;97497.00;;;17.01;100.00
4814;BME280;15375;48.540;9.268;2022-07-30T04:36:50;97522.19;;;18.03;100.00
4814;BME280;15375;48.540;9.268;2022-07-30T04:39:16;97537.09;;;17.78;93.96
4814;BME280;15375;48.540;9.268;2022-07-30T04:41:41;97534.09;;;17.28;100.00
4814;BME280;15375;48.540;9.268;2022-07-30T04:44:07;97543.50;;;16.90;100.00
4814;BME280;15375;48.540;9.268;2022-07-30T04:46:32;97534.81;;;16.39;100.00
4814;BME280;15375;48.540;9.268;2022-07-30T04:48:57;97530.31;;;16.85;100.00
4814;BME280;15375;48.540;9.268;2022-07-30T04:51:33;97549.22;;;17.72;100.00
4814;BME280;15375;48.540;9.268;2022-07-30T04:54:00;97534.47;;;18.71;96.80
4814;BME280;15375;48.540;9.268;2022-07-30T04:56:27;97531.91;;;18.59;90.89
4814;BME280;15375;48.540;9.268;2022-07-30T04:58:55;97539.84;;;18.06;92.81
4814;BME280;15375;48.540;9.268;2022-07-30T05:01:26;97519.31;;;17.61;97.49
4814;BME280;15375;48.540;9.268;2022-07-30T05:03:56;97541.94;;;17.29;100.00
4814;BME280;15375;48.540;9.268;2022-07-30T05:06:23;97547.22;;;16.96;100.00
4814;BME280;15375;48.540;9.268;2022-07-30T05:08:49;97540.81;;;16.69;100.00
4814;BME280;15375;48.540;9.268;2022-07-30T05:11:15;97534.88;;;16.79;100.00
4814;BME280;15375;48.540;9.268;2022-07-30T05:13:44;97556.22;;;17.55;100.00
4814;BME280;15375;48.540;9.268;2022-07-30T05:16:10;97538.16;;;17.81;100.00
4814;BME280;15375;48.540;9.268;2022-07-30T05:18:36;97533.69;;;18.11;97.39
4814;BME280;15375;48.540;9.268;2022-07-30T05:21:03;97545.88;;;18.46;96.61
4814;BME280;15375;48.540;9.268;2022-07-30T05:23:28;97547.84;;;18.73;91.97
4814;BME280;15375;48.540;9.268;2022-07-30T05:25:54;97548.09;;;19.17;89.38
4814;BME280;15375;48.540;9.268;2022-07-30T05:28:19;97546.66;;;19.30;89.08
4814;BME280;15375;48.540;9.268;2022-07-30T05:30:46;97538.91;;;19.43;86.03
4814;BME280;15375;48.540;9.268;2022-07-30T05:33:12;97538.88;;;19.20;86.43
4814;BME280;15375;48.540;9.268;2022-07-30T05:35:37;97547.22;;;19.10;89.79
4814;BME280;15375;48.540;9.268;2022-07-30T05:38:03;97529.13;;;19.33;88.52
4814;BME280;15375;48.540;9.268;2022-07-30T05:40:28;97539.19;;;19.45;86.86
4814;BME280;15375;48.540;9.268;2022-07-30T05:42:54;97550.91;;;20.90;81.18
4814;BME280;15375;48.540;9.268;2022-07-30T05:45:19;97548.91;;;21.80;75.31
4814;BME280;15375;48.540;9.268;2022-07-30T05:47:44;97550.69;;;23.48;68.75
4814;BME280;15375;48.540;9.268;2022-07-30T05:50:10;97546.31;;;25.78;59.77
4814;BME280;15375;48.540;9.268;2022-07-30T05:52:37;97563.56;;;27.10;54.74
4814;BME280;15375;48.540;9.268;2022-07-30T05:55:02;97566.25;;;28.50;49.36
4814;BME280;15375;48.540;9.268;2022-07-30T05:57:28;97579.53;;;28.68;48.91
4814;BME280;15375;48.540;9.268;2022-07-30T05:59:53;97541.94;;;28.21;48.62
4814;BME280;15375;48.540;9.268;2022-07-30T06:02:19;97566.47;;;29.47;45.90
4814;BME280;15375;48.540;9.268;2022-07-30T06:04:44;97559.94;;;30.31;45.46
4814;BME280;15375;48.540;9.268;2022-07-30T06:07:10;97574.31;;;29.81;45.22
4814;BME280;15375;48.540;9.268;2022-07-30T06:09:36;97559.53;;;30.14;45.65
4814;BME280;15375;48.540;9.268;2022-07-30T06:12:01;97556.69;;;30.27;44.72
4814;BME280;15375;48.540;9.268;2022-07-30T06:14:26;97587.72;;;30.81;43.45
4814;BME280;15375;48.540;9.268;2022-07-30T06:16:52;97585.88;;;32.02;42.00
4814;BME280;15375;48.540;9.268;2022-07-30T06:19:19;97574.13;;;32.27;41.29
4814;BME280;15375;48.540;9.268;2022-07-30T06:21:44;97531.91;;;32.57;40.04
4814;BME280;15375;48.540;9.268;2022-07-30T06:24:10;97575.13;;;33.18;39.66
4814;BME280;15375;48.540;9.268;2022-07-30T06:26:35;97586.03;;;33.67;38.82
4814;BME280;15375;48.540;9.268;2022-07-30T06:29:00;97577.75;;;33.31;38.99
4814;BME280;15375;48.540;9.268;2022-07-30T06:31:26;97584.47;;;32.75;39.65
4814;BME280;15375;48.540;9.268;2022-07-30T06:33:51;97577.53;;;32.33;40.41
4814;BME280;15375;48.540;9.268;2022-07-30T06:36:16;97553.03;;;32.94;39.64
4814;BME280;15375;48.540;9.268;2022-07-30T06:38:42;97587.56;;;33.37;38.60
4814;BME280;15375;48.540;9.268;2022-07-30T06:41:07;97582.22;;;32.96;39.18
4814;BME280;15375;48.540;9.268;2022-07-30T06:43:33;97576.94;;;33.91;37.91
4814;BME280;15375;48.540;9.268;2022-07-30T06:45:58;97579.38;;;34.10;37.38
4814;BME280;15375;48.540;9.268;2022-07-30T06:48:24;97577.97;;;33.56;38.01
4814;BME280;15375;48.540;9.268;2022-07-30T06:50:50;97563.19;;;32.66;39.29
4814;BME280;15375;48.540;9.268;2022-07-30T06:53:15;97573.97;;;33.21;38.51
4814;BME280;15375;48.540;9.268;2022-07-30T06:55:40;97577.34;;;32.89;38.71
4814;BME280;15375;48.540;9.268;2022-07-30T06:58:06;97590.34;;;31.21;40.38
4814;BME280;15375;48.540;9.268;2022-07-30T07:00:31;97581.56;;;31.04;41.99
4814;BME280;15375;48.540;9.268;2022-07-30T07:02:57;97588.31;;;30.07;43.42
4814;BME280;15375;48.540;9.268;2022-07-30T07:05:22;97586.78;;;29.53;44.96
4814;BME280;15375;48.540;9.268;2022-07-30T07:07:48;97584.19;;;29.29;46.12
4814;BME280;15375;48.540;9.268;2022-07-30T07:10:13;97590.44;;;28.53;47.54
4814;BME280;15375;48.540;9.268;2022-07-30T07:12:38;97576.66;;;28.36;47.70
4814;BME280;15375;48.540;9.268;2022-07-30T07:15:04;97580.69;;;28.04;47.71
4814;BME280;15375;48.540;9.268;2022-07-30T07:17:30;97567.72;;;27.28;50.74
4814;BME280;15375;48.540;9.268;2022-07-30T07:19:56;97566.22;;;26.62;50.37
4814;BME280;15375;48.540;9.268;2022-07-30T07:22:21;97568.72;;;27.31;49.95
4814;BME280;15375;48.540;9.268;2022-07-30T07:24:47;97571.56;;;27.25;51.24
4814;BME280;15375;48.540;9.268;2022-07-30T07:27:12;97581.06;;;27.46;50.16
4814;BME280;15375;48.540;9.268;2022-07-30T07:29:39;97586.56;;;28.00;49.83
4814;BME280;15375;48.540;9.268;2022-07-30T07:32:05;97575.94;;;27.93;48.21
4814;BME280;15375;48.540;9.268;2022-07-30T07:34:30;97584.78;;;27.97;49.22
4814;BME280;15375;48.540;9.268;2022-07-30T07:36:55;97562.69;;;27.51;49.98
4814;BME280;15375;48.540;9.268;2022-07-30T07:39:21;97568.72;;;27.55;49.49
4814;BME280;15375;48.540;9.268;2022-07-30T07:41:46;97577.72;;;27.48;51.21
4814;BME280;15375;48.540;9.268;2022-07-30T07:44:12;97579.84;;;26.36;52.93
4814;BME280;15375;48.540;9.268;2022-07-30T07:46:37;97583.19;;;26.70;51.77
4814;BME280;15375;48.540;9.268;2022-07-30T07:49:02;97585.94;;;26.40;51.05
4814;BME280;15375;48.540;9.268;2022-07-30T07:51:28;97595.91;;;26.30;53.41
4814;BME280;15375;48.540;9.268;2022-07-30T07:53:53;97568.84;;;25.97;53.45
4814;BME280;15375;48.540;9.268;2022-07-30T07:56:19;97562.56;;;26.73;52.88
4814;BME280;15375;48.540;9.268;2022-07-30T07:58:46;97592.19;;;27.52;50.33
4814;BME280;15375;48.540;9.268;2022-07-30T08:01:11;97599.00;;;27.32;53.22
4814;BME280;15375;48.540;9.268;2022-07-30T08:03:37;97569.41;;;27.85;48.57
4814;BME280;15375;48.540;9.268;2022-07-30T08:06:02;97573.50;;;27.84;50.68
4814;BME280;15375;48.540;9.268;2022-07-30T08:08:27;97592.28;;;28.51;48.52
4814;BME280;15375;48.540;9.268;2022-07-30T08:10:53;97583.50;;;28.41;47.06
4814;BME280;15375;48.540;9.268;2022-07-30T08:13:18;97587.53;;;27.84;46.59
4814;BME280;15375;48.540;9.268;2022-07-30T08:15:44;97580.63;;;26.77;49.63
4814;BME280;15375;48.540;9.268;2022-07-30T08:18:09;97564.88;;;27.04;51.31
4814;BME280;15375;48.540;9.268;2022-07-30T08:20:36;97587.63;;;26.54;48.78
4814;BME280;15375;48.540;9.268;2022-07-30T08:23:03;97577.16;;;26.60;49.33
4814;BME280;15375;48.540;9.268;2022-07-30T08:25:29;97585.50;;;27.60;51.11
4814;BME280;15375;48.540;9.268;2022-07-30T08:27:54;97589.69;;;27.72;47.59
4814;BME280;15375;48.540;9.268;2022-07-30T08:30:20;97581.38;;;27.85;48.83
4814;BME280;15375;48.540;9.268;2022-07-30T08:32:45;97597.88;;;27.70;48.97
4814;BME280;15375;48.540;9.268;2022-07-30T08:35:11;97551.34;;;28.61;46.92
4814;BME280;15375;48.540;9.268;2022-07-30T08:37:36;97582.56;;;28.70;48.48
4814;BME280;15375;48.540;9.268;2022-07-30T08:40:05;97553.25;;;28.34;45.64
4814;BME280;15375;48.540;9.268;2022-07-30T08:42:33;97573.84;;;27.99;48.47
4814;BME280;15375;48.540;9.268;2022-07-30T08:44:59;97587.41;;;27.71;46.88
4814;BME280;15375;48.540;9.268;2022-07-30T08:47:28;97582.13;;;27.13;48.15
4814;BME280;15375;48.540;9.268;2022-07-30T08:49:55;97560.16;;;26.17;50.46
4814;BME280;15375;48.540;9.268;2022-07-30T08:52:26;97571.53;;;26.66;46.69
4814;BME280;15375;48.540;9.268;2022-07-30T08:54:52;97547.22;;;27.14;47.99
4814;BME280;15375;48.540;9.268;2022-07-30T08:57:18;97568.13;;;27.62;48.51
4814;BME280;15375;48.540;9.268;2022-07-30T08:59:44;97570.06;;;27.72;48.06
4814;BME280;15375;48.540;9.268;2022-07-30T09:02:09;97577.59;;;26.34;46.38
4814;BME280;15375;48.540;9.268;2022-07-30T09:04:35;97594.84;;;26.79;45.87
4814;BME280;15375;48.540;9.268;2022-07-30T09:07:00;97577.72;;;26.53;46.15
4814;BME280;15375;48.540;9.268;2022-07-30T09:09:26;97592.59;;;26.31;48.46
4814;BME280;15375;48.540;9.268;2022-07-30T09:11:51;97591.22;;;27.19;44.08
4814;BME280;15375;48.540;9.268;2022-07-30T09:14:16;97582.94;;;27.08;45.51
4814;BME280;15375;48.540;9.268;2022-07-30T09:16:43;97594.13;;;26.73;45.98
4814;BME280;15375;48.540;9.268;2022-07-30T09:19:17;97589.03;;;26.77;47.09
4814;BME280;15375;48.540;9.268;2022-07-30T09:21:56;97582.59;;;26.47;47.86
4814;BME280;15375;48.540;9.268;2022-07-30T09:24:22;97579.38;;;26.73;45.47
4814;BME280;15375;48.540;9.268;2022-07-30T09:29:20;97580.63;;;25.73;49.25
4814;BME280;15375;48.540;9.268;2022-07-30T09:32:03;97591.91;;;26.09;50.66
4814;BME280;15375;48.540;9.268;2022-07-30T09:34:31;97585.63;;;26.90;48.36
4814;BME280;15375;48.540;9.268;2022-07-30T09:37:01;97588.13;;;27.53;46.84
4814;BME280;15375;48.540;9.268;2022-07-30T09:39:45;97574.00;;;27.10;45.64
4814;BME280;15375;48.540;9.268;2022-07-30T09:42:25;97581.31;;;27.67;43.63
4814;BME280;15375;48.540;9.268;2022-07-30T09:44:52;97592.84;;;27.39;44.85
4814;BME280;15375;48.540;9.268;2022-07-30T09:47:35;97570.88;;;27.92;43.89
4814;BME280;15375;48.540;9.268;2022-07-30T09:52:31;97584.53;;;29.07;43.19
4814;BME280;15375;48.540;9.268;2022-07-30T09:54:56;97587.88;;;28.74;40.63
4814;BME280;15375;48.540;9.268;2022-07-30T09:57:22;97586.69;;;29.01;41.25
4814;BME280;15375;48.540;9.268;2022-07-30T09:59:47;97555.84;;;28.82;40.98
4814;BME280;15375;48.540;9.268;2022-07-30T10:02:12;97592.19;;;28.37;43.40
4814;BME280;15375;48.540;9.268;2022-07-30T10:04:38;97553.00;;;28.51;42.26
4814;BME280;15375;48.540;9.268;2022-07-30T10:07:03;97553.00;;;28.51;41.79
4814;BME280;15375;48.540;9.268;2022-07-30T10:09:33;97567.66;;;28.94;42.15
4814;BME280;15375;48.540;9.268;2022-07-30T10:12:02;97589.50;;;28.69;41.67
4814;BME280;15375;48.540;9.268;2022-07-30T10:14:33;97591.38;;;28.80;42.77
4814;BME280;15375;48.540;9.268;2022-07-30T10:16:59;97573.91;;;28.87;41.26
4814;BME280;15375;48.540;9.268;2022-07-30T10:19:25;97573.94;;;29.00;41.79
4814;BME280;15375;48.540;9.268;2022-07-30T10:21:51;97557.06;;;28.87;40.43
4814;BME280;15375;48.540;9.268;2022-07-30T10:24:18;97563.84;;;29.23;40.29
4814;BME280;15375;48.540;9.268;2022-07-30T10:26:48;97568.97;;;28.56;40.15
4814;BME280;15375;48.540;9.268;2022-07-30T10:29:14;97547.59;;;29.16;39.48
4814;BME280;15375;48.540;9.268;2022-07-30T10:31:43;97567.13;;;29.66;40.48
4814;BME280;15375;48.540;9.268;2022-07-30T10:34:09;97559.78;;;30.03;39.29
4814;BME280;15375;48.540;9.268;2022-07-30T10:36:36;97553.72;;;29.99;40.85
4814;BME280;15375;48.540;9.268;2022-07-30T10:39:06;97534.16;;;29.93;39.14
4814;BME280;15375;48.540;9.268;2022-07-30T10:41:59;97575.63;;;30.73;39.80
4814;BME280;15375;48.540;9.268;2022-07-30T10:47:09;97558.88;;;30.88;37.00
4814;BME280;15375;48.540;9.268;2022-07-30T10:49:35;97566.19;;;30.50;39.46
4814;BME280;15375;48.540;9.268;2022-07-30T10:52:00;97563.13;;;30.01;40.93
4814;BME280;15375;48.540;9.268;2022-07-30T11:02:18;97574.19;;;27.90;41.47
4814;BME280;15375;48.540;9.268;2022-07-30T11:04:43;97571.78;;;28.56;40.25
4814;BME280;15375;48.540;9.268;2022-07-30T11:09:53;97543.66;;;29.64;38.71
4814;BME280;15375;48.540;9.268;2022-07-30T11:15:08;97543.13;;;29.79;37.81
4814;BME280;15375;48.540;9.268;2022-07-30T11:18:07;97564.84;;;30.17;40.19
4814;BME280;15375;48.540;9.268;2022-07-30T11:20:35;97551.34;;;29.63;37.04
4814;BME280;15375;48.540;9.268;2022-07-30T11:23:34;97558.16;;;30.07;39.58
4814;BME280;15375;48.540;9.268;2022-07-30T11:25:56;97544.75;;;29.87;39.44
4814;BME280;15375;48.540;9.268;2022-07-30T11:28:36;97550.59;;;29.63;39.86
4814;BME280;15375;48.540;9.268;2022-07-30T11:31:03;97555.50;;;30.22;37.87
4814;BME280;15375;48.540;9.268;2022-07-30T11:33:29;97545.84;;;29.97;38.27
4814;BME280;15375;48.540;9.268;2022-07-30T11:36:08;97529.63;;;29.90;39.24
4814;BME280;15375;48.540;9.268;2022-07-30T11:38:57;97547.72;;;30.28;39.18
4814;BME280;15375;48.540;9.268;2022-07-30T11:41:23;97548.19;;;30.53;39.04
4814;BME280;15375;48.540;9.268;2022-07-30T11:44:27;97530.44;;;31.00;35.25
4814;BME280;15375;48.540;9.268;2022-07-30T11:46:54;97541.19;;;29.87;39.48
4814;BME280;15375;48.540;9.268;2022-07-30T11:49:20;97544.81;;;30.21;39.72
4814;BME280;15375;48.540;9.268;2022-07-30T11:51:46;97509.97;;;30.78;36.43
4814;BME280;15375;48.540;9.268;2022-07-30T11:54:12;97508.59;;;31.41;34.27
4814;BME280;15375;48.540;9.268;2022-07-30T11:56:53;97527.34;;;31.67;36.85
4814;BME280;15375;48.540;9.268;2022-07-30T11:59:18;97536.88;;;31.28;37.28
4814;BME280;15375;48.540;9.268;2022-07-30T12:01:49;97538.06;;;31.12;36.31
4814;BME280;15375;48.540;9.268;2022-07-30T12:04:14;97509.34;;;30.72;35.24
4814;BME280;15375;48.540;9.268;2022-07-30T12:06:45;97499.09;;;31.03;35.33
4814;BME280;15375;48.540;9.268;2022-07-30T12:09:11;97527.97;;;30.96;36.81
4814;BME280;15375;48.540;9.268;2022-07-30T12:11:37;97527.13;;;31.37;36.26
4814;BME280;15375;48.540;9.268;2022-07-30T12:14:03;97521.28;;;30.86;37.34
4814;BME280;15375;48.540;9.268;2022-07-30T12:16:30;97510.00;;;30.45;38.04
4814;BME280;15375;48.540;9.268;2022-07-30T12:19:04;97512.00;;;30.57;37.62
4814;BME280;15375;48.540;9.268;2022-07-30T12:21:29;97485.84;;;30.70;37.38
4814;BME280;15375;48.540;9.268;2022-07-30T12:23:59;97515.81;;;31.01;33.53
4814;BME280;15375;48.540;9.268;2022-07-30T12:26:27;97507.94;;;29.06;35.52
4814;BME280;15375;48.540;9.268;2022-07-30T12:28:56;97514.81;;;29.50;38.25
4814;BME280;15375;48.540;9.268;2022-07-30T12:31:22;97510.72;;;29.78;38.17
4814;BME280;15375;48.540;9.268;2022-07-30T12:33:48;97506.06;;;30.14;38.48
4814;BME280;15375;48.540;9.268;2022-07-30T12:36:30;97506.88;;;30.48;36.82
4814;BME280;15375;48.540;9.268;2022-07-30T12:38:56;97520.31;;;30.42;36.17
4814;BME280;15375;48.540;9.268;2022-07-30T12:41:34;97502.25;;;29.91;37.46
4814;BME280;15375;48.540;9.268;2022-07-30T12:44:05;97534.41;;;29.11;39.09
4814;BME280;15375;48.540;9.268;2022-07-30T12:46:37;97497.63;;;28.19;38.80
4814;BME280;15375;48.540;9.268;2022-07-30T12:49:04;97514.59;;;28.59;40.05
4814;BME280;15375;48.540;9.268;2022-07-30T12:51:51;97512.03;;;28.61;38.95
4814;BME280;15375;48.540;9.268;2022-07-30T12:54:23;97495.53;;;28.38;40.15
4814;BME280;15375;48.540;9.268;2022-07-30T12:57:00;97509.56;;;28.38;40.01
4814;BME280;15375;48.540;9.268;2022-07-30T12:59:26;97500.31;;;28.43;40.02
4814;BME280;15375;48.540;9.268;2022-07-30T13:01:52;97493.91;;;28.62;39.68
4814;BME280;15375;48.540;9.268;2022-07-30T13:04:20;97489.47;;;29.11;37.73
4814;BME280;15375;48.540;9.268;2022-07-30T13:07:06;97500.88;;;29.45;39.05
4814;BME280;15375;48.540;9.268;2022-07-30T13:09:32;97488.22;;;29.25;37.63
4814;BME280;15375;48.540;9.268;2022-07-30T13:11:58;97485.59;;;29.14;39.49
4814;BME280;15375;48.540;9.268;2022-07-30T13:14:23;97495.53;;;29.02;39.31
4814;BME280;15375;48.540;9.268;2022-07-30T13:16:53;97482.03;;;29.66;37.18
4814;BME280;15375;48.540;9.268;2022-07-30T13:19:23;97491.34;;;30.21;35.77
4814;BME280;15375;48.540;9.268;2022-07-30T13:21:49;97478.56;;;29.73;37.60
4814;BME280;15375;48.540;9.268;2022-07-30T13:24:14;97484.41;;;29.75;37.91
4814;BME280;15375;48.540;9.268;2022-07-30T13:26:39;97474.34;;;29.93;35.00
4814;BME280;15375;48.540;9.268;2022-07-30T13:29:05;97464.03;;;30.08;37.23
4814;BME280;15375;48.540;9.268;2022-07-30T13:31:31;97464.47;;;29.99;36.52